Capitol Logistics 445


KHSV
Huntsville International Airport
Huntsville, Alabama, US
KIAD
Washington Dulles International Airport
Dulles, Virginia, US

Activity Log

Date Flight Route Aircraft Duration
09/10/2020 CPX445 KHSV/18R LVT BKW GIBBZ3 KIAD/I01C B763 1h 42m
06/18/2020 CPX445 KHSV/18L BNA J42 BKW GIBBZ3 KIAD/I19C B763 1h 40m
05/23/2020 CPX445 BNA J42 BKW GIBBZ3 B763 1h 46m
02/28/2020 CPX445 BNA HVQ GIBBZ3 B763 1h 38m
12/18/2019 CPX445 BNA HVQ GIBBZ3 B763 1h 42m

Route Details

Aircraft Information
Primary: Boeing 757-200SF
Backup: Boeing 767-300BDSF
Route Data
Distance: 517nm
Sched. Duration: 1h 53m
Avg. Duration: 1h 42m (-11m)
Times Flown: 5
Recm'd Route: BNA HVQ GIBBZ3
Planned Altitude: 33,000ft
Origin Wx: KHSV 221953Z 12007KT 10SM SCT037 SCT048 27/18 A3009 RMK AO2 SLP182 T02720183
Dest. Wx: KIAD 222052Z 13009KT 10SM FEW044 SCT055 SCT160 26/18 A3017 RMK AO2 SLP214 T02610178 56013
Notes:

Financial History
Total Freight: 433,666lbs
Average Load: 86,733lbs/flt
Fuel Used: 85,242lbs
Avg. Fuel Used: 17,048lbs/flt
Fuel Expense: $76,718
Avg. Fuel Expense: $15,344
Avg. Fuel Cost: $0.90/lbs
Total Gross Income: $615,806
Pilot Pay: $1,055
Total Expenses: $66,767
Total Revenue: $470,545
Average Revenue: $123,161.15